createdAt,value
2023-05-18T00:00:19.361Z,10.43
2023-05-18T00:01:22.099Z,10.43
2023-05-18T00:02:26.418Z,10.41
2023-05-18T00:03:28.473Z,10.39
2023-05-18T00:04:33.223Z,10.38
2023-05-18T00:05:35.051Z,10.33
2023-05-18T00:06:37.182Z,10.27
2023-05-18T00:07:39.453Z,10.29
2023-05-18T00:08:41.521Z,10.28
2023-05-18T00:09:43.392Z,10.28
2023-05-18T00:10:45.504Z,10.27
2023-05-18T00:11:47.279Z,10.28
2023-05-18T00:12:49.079Z,10.31
2023-05-18T00:13:50.884Z,10.31
2023-05-18T00:14:52.896Z,10.32
2023-05-18T00:15:54.793Z,10.32
2023-05-18T00:16:57.948Z,10.32
2023-05-18T00:17:59.848Z,10.31
2023-05-18T00:19:02.494Z,10.31
2023-05-18T00:20:05.654Z,10.30
2023-05-18T00:21:08.901Z,10.28
2023-05-18T00:22:11.070Z,10.30
2023-05-18T00:23:16.236Z,10.30
2023-05-18T00:24:19.234Z,10.29
2023-05-18T00:25:21.234Z,10.26
2023-05-18T00:26:23.247Z,10.24
2023-05-18T00:27:25.054Z,10.23
2023-05-18T00:28:27.726Z,10.21
2023-05-18T00:29:29.518Z,10.20
2023-05-18T00:30:31.285Z,10.19
2023-05-18T00:31:36.260Z,10.17
2023-05-18T00:32:38.115Z,10.16
2023-05-18T00:33:40.584Z,10.14
2023-05-18T00:34:42.356Z,10.13
2023-05-18T00:35:44.156Z,10.11
2023-05-18T00:36:45.996Z,10.10
2023-05-18T00:37:47.950Z,10.07
2023-05-18T00:38:49.767Z,10.12
2023-05-18T00:39:51.577Z,10.12
2023-05-18T00:40:53.415Z,10.11
2023-05-18T00:41:55.342Z,10.11
2023-05-18T00:42:57.145Z,10.09
2023-05-18T00:43:59.927Z,10.09
2023-05-18T00:45:01.791Z,10.07
2023-05-18T00:46:03.665Z,10.07
2023-05-18T00:47:05.811Z,10.06
2023-05-18T00:48:07.752Z,10.06
2023-05-18T00:49:11.256Z,10.02
2023-05-18T00:50:13.298Z,10.00
2023-05-18T00:51:15.319Z,9.98
2023-05-18T00:52:17.335Z,9.99
2023-05-18T00:53:19.191Z,9.98
2023-05-18T00:54:21.095Z,9.97
2023-05-18T00:55:23.026Z,9.97
2023-05-18T00:56:26.163Z,9.96
2023-05-18T00:57:28.557Z,9.96
2023-05-18T00:58:31.423Z,9.92
2023-05-18T00:59:34.689Z,9.93
2023-05-18T01:00:37.702Z,9.91
2023-05-18T01:01:43.919Z,9.93
2023-05-18T01:02:46.275Z,9.92
2023-05-18T01:03:48.196Z,9.90
2023-05-18T01:04:50.007Z,9.91
2023-05-18T01:05:55.706Z,9.89
2023-05-18T01:06:58.533Z,9.87
2023-05-18T01:08:03.012Z,9.90
2023-05-18T01:09:09.049Z,9.90
2023-05-18T01:10:13.624Z,9.88
2023-05-18T01:11:33.131Z,9.86
2023-05-18T01:12:57.410Z,9.86
2023-05-18T01:14:37.288Z,9.86
2023-05-18T01:15:41.870Z,9.84
2023-05-18T01:17:01.610Z,9.83
2023-05-18T01:18:55.821Z,9.79
2023-05-18T01:20:33.574Z,9.80
2023-05-18T01:22:29.555Z,9.80
2023-05-18T01:24:03.915Z,9.79
2023-05-18T01:25:40.868Z,9.78
2023-05-18T01:26:47.516Z,9.77
2023-05-18T01:27:56.028Z,9.77
2023-05-18T01:29:09.202Z,9.77
2023-05-18T01:30:12.018Z,9.76
2023-05-18T01:31:16.164Z,9.74
2023-05-18T01:32:22.783Z,9.74
2023-05-18T01:33:25.328Z,9.73
2023-05-18T01:34:27.588Z,9.75
2023-05-18T01:35:29.766Z,9.75
2023-05-18T01:36:32.287Z,9.76
2023-05-18T01:37:34.064Z,9.76
2023-05-18T01:38:37.077Z,9.75
2023-05-18T01:39:40.420Z,9.75
2023-05-18T01:41:24.266Z,9.74
2023-05-18T01:42:31.094Z,9.76
2023-05-18T01:43:48.800Z,9.75
2023-05-18T01:45:09.401Z,9.77
2023-05-18T01:46:19.996Z,9.78
2023-05-18T01:47:24.953Z,9.80
2023-05-18T01:48:26.935Z,9.81
2023-05-18T01:50:03.437Z,9.81
2023-05-18T01:51:09.430Z,9.79
2023-05-18T01:52:24.643Z,9.78
2023-05-18T01:53:52.708Z,9.76
2023-05-18T01:55:01.774Z,9.73
2023-05-18T01:56:08.923Z,9.73
2023-05-18T01:57:12.393Z,9.70
2023-05-18T01:58:18.212Z,9.67
2023-05-18T01:59:20.642Z,9.68
2023-05-18T02:00:23.248Z,9.67
2023-05-18T02:01:25.502Z,9.64
2023-05-18T02:02:28.966Z,9.62
2023-05-18T02:03:33.685Z,9.61
2023-05-18T02:04:35.656Z,9.57
2023-05-18T02:05:37.454Z,9.55
2023-05-18T02:06:39.251Z,9.53
2023-05-18T02:07:43.991Z,9.49
2023-05-18T02:08:46.175Z,9.48
2023-05-18T02:09:48.284Z,9.49
2023-05-18T02:10:50.067Z,9.47
2023-05-18T02:11:51.879Z,9.45
2023-05-18T02:12:53.884Z,9.44
2023-05-18T02:13:55.825Z,9.42
2023-05-18T02:14:58.428Z,9.41
2023-05-18T02:16:00.361Z,9.40
2023-05-18T02:17:02.356Z,9.42
2023-05-18T02:18:04.382Z,9.44
2023-05-18T02:19:06.530Z,9.44
2023-05-18T02:20:10.057Z,9.44
2023-05-18T02:21:13.657Z,9.44
2023-05-18T02:22:15.540Z,9.42
2023-05-18T02:23:17.689Z,9.40
2023-05-18T02:24:19.514Z,9.41
2023-05-18T02:25:21.464Z,9.40
2023-05-18T02:26:23.281Z,9.38
2023-05-18T02:27:25.103Z,9.38
2023-05-18T02:28:26.874Z,9.36
2023-05-18T02:29:28.732Z,9.33
2023-05-18T02:30:33.167Z,9.34
2023-05-18T02:31:36.008Z,9.32
2023-05-18T02:32:38.564Z,9.31
2023-05-18T02:33:40.913Z,9.30
2023-05-18T02:34:42.783Z,9.28
2023-05-18T02:35:44.571Z,9.29
2023-05-18T02:36:46.367Z,9.28
2023-05-18T02:37:49.929Z,9.26
2023-05-18T02:38:51.803Z,9.26
2023-05-18T02:39:53.674Z,9.25
2023-05-18T02:40:55.598Z,9.27
2023-05-18T02:41:57.576Z,9.25
2023-05-18T02:42:59.369Z,9.24
2023-05-18T02:44:02.906Z,9.22
2023-05-18T02:45:05.936Z,9.23
2023-05-18T02:46:07.766Z,9.22
2023-05-18T02:47:09.928Z,9.20
2023-05-18T02:48:11.714Z,9.20
2023-05-18T02:49:13.606Z,9.20
2023-05-18T02:50:15.553Z,9.19
2023-05-18T02:51:17.470Z,9.18
2023-05-18T02:52:19.227Z,9.20
2023-05-18T02:53:21.794Z,9.18
2023-05-18T02:54:23.574Z,9.20
2023-05-18T02:55:25.553Z,9.21
2023-05-18T02:56:28.537Z,9.21
2023-05-18T02:57:31.958Z,9.22
2023-05-18T02:58:33.836Z,9.23
2023-05-18T02:59:36.116Z,9.23
2023-05-18T03:00:37.907Z,9.22
2023-05-18T03:01:41.031Z,9.24
2023-05-18T03:02:44.336Z,9.23
2023-05-18T03:03:47.213Z,9.22
2023-05-18T03:04:53.940Z,9.21
2023-05-18T03:05:55.771Z,9.19
2023-05-18T03:06:58.526Z,9.16
2023-05-18T03:08:02.422Z,9.16
2023-05-18T03:09:04.646Z,9.13
2023-05-18T03:10:07.823Z,9.16
2023-05-18T03:11:09.625Z,9.14
2023-05-18T03:12:11.436Z,9.13
2023-05-18T03:13:13.188Z,9.13
2023-05-18T03:14:15.020Z,9.10
2023-05-18T03:15:16.809Z,9.12
2023-05-18T03:16:18.852Z,9.11
2023-05-18T03:17:20.686Z,9.08
2023-05-18T03:18:25.071Z,9.07
2023-05-18T03:19:27.909Z,9.09
2023-05-18T03:20:31.625Z,9.08
2023-05-18T03:21:36.550Z,9.09
2023-05-18T03:22:38.587Z,9.07
2023-05-18T03:23:40.717Z,9.06
2023-05-18T03:24:43.168Z,9.05
2023-05-18T03:25:45.886Z,9.03
2023-05-18T03:26:47.664Z,8.99
2023-05-18T03:27:49.479Z,9.02
2023-05-18T03:28:51.297Z,9.01
2023-05-18T03:29:53.192Z,9.00
2023-05-18T03:30:55.655Z,8.98
2023-05-18T03:31:58.290Z,8.98
2023-05-18T03:33:03.740Z,8.97
2023-05-18T03:34:05.620Z,8.95
2023-05-18T03:35:07.982Z,8.97
2023-05-18T03:36:10.656Z,8.96
2023-05-18T03:37:12.439Z,8.97
2023-05-18T03:38:14.300Z,8.95
2023-05-18T03:39:16.133Z,8.96
2023-05-18T03:40:20.479Z,8.95
2023-05-18T03:41:22.289Z,8.93
2023-05-18T03:42:25.653Z,8.94
2023-05-18T03:43:29.538Z,8.93
2023-05-18T03:44:31.330Z,8.94
2023-05-18T03:45:33.144Z,8.93
2023-05-18T03:46:35.126Z,8.91
2023-05-18T03:47:37.993Z,8.93
2023-05-18T03:48:39.802Z,8.93
2023-05-18T03:49:41.614Z,8.92
2023-05-18T03:50:44.019Z,8.91
2023-05-18T03:51:45.770Z,8.91
2023-05-18T03:52:47.575Z,8.89
2023-05-18T03:53:49.439Z,8.93
2023-05-18T03:54:52.058Z,8.93
2023-05-18T03:55:53.867Z,8.91
2023-05-18T03:56:55.782Z,8.91
2023-05-18T03:57:59.126Z,8.91
2023-05-18T03:59:00.945Z,8.90
2023-05-18T04:00:11.719Z,8.91
2023-05-18T04:02:16.687Z,8.92
2023-05-18T04:03:18.616Z,8.92
2023-05-18T04:04:23.352Z,8.92
2023-05-18T04:05:25.907Z,8.93
2023-05-18T04:06:27.780Z,8.90
2023-05-18T04:07:29.717Z,8.92
2023-05-18T04:08:34.236Z,8.90
2023-05-18T04:09:36.967Z,8.90
2023-05-18T04:10:38.805Z,8.90
2023-05-18T04:11:41.368Z,8.91
2023-05-18T04:12:43.404Z,8.95
2023-05-18T04:13:45.446Z,8.92
2023-05-18T04:14:49.433Z,8.91
2023-05-18T04:15:51.698Z,8.94
2023-05-18T04:16:54.302Z,8.94
2023-05-18T04:17:56.246Z,8.93
2023-05-18T04:18:58.107Z,8.93
2023-05-18T04:19:59.931Z,8.93
2023-05-18T04:21:01.771Z,8.93
2023-05-18T04:22:06.745Z,8.94
2023-05-18T04:23:10.133Z,8.92
2023-05-18T04:24:14.398Z,8.88
2023-05-18T04:25:17.352Z,8.89
2023-05-18T04:26:20.058Z,8.89
2023-05-18T04:27:22.598Z,8.88
2023-05-18T04:28:24.449Z,8.89
2023-05-18T04:29:28.030Z,8.89
2023-05-18T04:30:31.103Z,8.90
2023-05-18T04:31:34.598Z,8.89
2023-05-18T04:32:37.978Z,8.90
2023-05-18T04:33:41.572Z,8.90
2023-05-18T04:34:43.386Z,8.89
2023-05-18T04:35:45.141Z,8.91
2023-05-18T04:36:47.030Z,8.91
2023-05-18T04:37:48.869Z,8.91
2023-05-18T04:38:50.923Z,8.88
2023-05-18T04:39:53.972Z,8.89
2023-05-18T04:40:57.038Z,8.90
2023-05-18T04:41:59.104Z,8.91
2023-05-18T04:43:01.024Z,8.90
2023-05-18T04:44:04.136Z,8.94
2023-05-18T04:45:06.651Z,8.95
2023-05-18T04:46:08.458Z,8.95
2023-05-18T04:47:10.304Z,8.97
2023-05-18T04:48:14.223Z,8.97
2023-05-18T04:49:16.091Z,8.98
2023-05-18T04:50:18.135Z,8.98
2023-05-18T04:51:22.835Z,8.98
2023-05-18T04:52:25.166Z,8.99
2023-05-18T04:53:27.489Z,9.04
2023-05-18T04:54:33.079Z,9.09
2023-05-18T04:55:35.576Z,9.12
2023-05-18T04:56:37.515Z,9.14
2023-05-18T04:58:41.534Z,9.21
2023-05-18T04:59:47.225Z,9.24
2023-05-18T05:00:49.034Z,9.28
2023-05-18T05:01:50.986Z,9.34
2023-05-18T05:02:53.756Z,9.37
2023-05-18T05:03:57.489Z,9.36
2023-05-18T05:05:00.768Z,9.38
2023-05-18T05:06:02.622Z,9.38
2023-05-18T05:07:04.700Z,9.40
2023-05-18T05:08:06.650Z,9.42
2023-05-18T05:09:08.478Z,9.45
2023-05-18T05:10:11.024Z,9.44
2023-05-18T05:11:12.845Z,9.44
2023-05-18T05:12:14.682Z,9.45
2023-05-18T05:13:16.558Z,9.47
2023-05-18T05:14:18.312Z,9.46
2023-05-18T05:15:20.992Z,9.47
2023-05-18T05:16:22.847Z,9.46
2023-05-18T05:17:25.435Z,9.46
2023-05-18T05:18:27.348Z,9.45
2023-05-18T05:19:29.148Z,9.46
2023-05-18T05:20:30.982Z,9.48
2023-05-18T05:21:33.072Z,9.49
2023-05-18T05:22:34.908Z,9.50
2023-05-18T05:23:36.757Z,9.50
2023-05-18T05:24:38.536Z,9.54
2023-05-18T05:25:40.338Z,9.55
2023-05-18T05:26:42.171Z,9.57
2023-05-18T05:27:43.988Z,9.56
2023-05-18T05:28:46.221Z,9.56
2023-05-18T05:29:50.206Z,9.59
2023-05-18T05:30:51.991Z,9.61
2023-05-18T05:31:53.965Z,9.65
2023-05-18T05:32:55.946Z,9.70
2023-05-18T05:33:57.744Z,9.75
2023-05-18T05:34:59.581Z,9.79
2023-05-18T05:36:01.474Z,9.84
2023-05-18T05:37:03.404Z,9.89
2023-05-18T05:38:06.267Z,9.93
2023-05-18T05:39:08.201Z,9.97
2023-05-18T05:40:10.892Z,9.99
2023-05-18T05:41:12.740Z,10.04
2023-05-18T05:42:14.829Z,10.07
2023-05-18T05:43:16.697Z,10.10
2023-05-18T05:44:18.520Z,10.13
2023-05-18T05:45:21.118Z,10.15
2023-05-18T05:46:24.536Z,10.18
2023-05-18T05:47:26.432Z,10.20
2023-05-18T05:48:28.257Z,10.20
2023-05-18T05:49:30.089Z,10.24
2023-05-18T05:50:32.740Z,10.27
2023-05-18T05:51:34.548Z,10.30
2023-05-18T05:52:36.324Z,10.37
2023-05-18T05:53:38.196Z,10.45
2023-05-18T05:54:41.542Z,10.57
2023-05-18T05:55:43.700Z,10.72
2023-05-18T05:56:45.590Z,10.92
2023-05-18T05:57:47.421Z,11.15
2023-05-18T05:58:49.239Z,11.40
2023-05-18T05:59:51.513Z,11.65
2023-05-18T06:00:53.641Z,11.96
2023-05-18T06:01:55.617Z,12.27
2023-05-18T06:02:58.741Z,12.60
2023-05-18T06:04:02.520Z,12.93
2023-05-18T06:05:07.228Z,13.30
2023-05-18T06:06:09.106Z,13.62
2023-05-18T06:07:11.113Z,13.90
2023-05-18T06:08:12.875Z,14.15
2023-05-18T06:09:15.955Z,14.38
2023-05-18T06:10:17.949Z,14.67
2023-05-18T06:11:19.843Z,14.90
2023-05-18T06:12:21.809Z,15.18
2023-05-18T06:13:23.602Z,15.43
2023-05-18T06:14:25.507Z,15.67
2023-05-18T06:15:27.262Z,15.82
2023-05-18T06:16:29.195Z,15.98
2023-05-18T06:17:31.072Z,16.07
2023-05-18T06:18:32.927Z,16.07
2023-05-18T06:19:34.718Z,16.05
2023-05-18T06:20:36.597Z,16.10
2023-05-18T06:21:38.890Z,16.18
2023-05-18T06:22:40.851Z,16.31
2023-05-18T06:23:44.433Z,16.44
2023-05-18T06:24:47.108Z,16.55
2023-05-18T06:25:50.134Z,16.68
2023-05-18T06:26:51.889Z,16.73
2023-05-18T06:27:53.659Z,16.82
2023-05-18T06:28:55.504Z,16.95
2023-05-18T06:29:57.273Z,17.08
2023-05-18T06:30:59.551Z,17.24
2023-05-18T06:32:02.946Z,17.36
2023-05-18T06:33:04.835Z,17.41
2023-05-18T06:34:06.661Z,17.47
2023-05-18T06:35:09.180Z,17.56
2023-05-18T06:36:10.968Z,17.65
2023-05-18T06:37:13.058Z,17.77
2023-05-18T06:38:15.174Z,17.91
2023-05-18T06:39:17.270Z,18.08
2023-05-18T06:40:19.121Z,18.29
2023-05-18T06:41:22.172Z,18.53
2023-05-18T06:42:24.064Z,18.77
2023-05-18T06:43:26.903Z,19.02
2023-05-18T06:44:28.747Z,19.26
2023-05-18T06:45:30.752Z,19.40
2023-05-18T06:46:33.251Z,19.48
2023-05-18T06:47:35.185Z,19.55
2023-05-18T06:48:38.587Z,19.62
2023-05-18T06:49:40.372Z,19.67
2023-05-18T06:50:42.157Z,19.80
2023-05-18T06:51:44.077Z,19.96
2023-05-18T06:52:45.890Z,20.13
2023-05-18T06:53:47.794Z,20.30
2023-05-18T06:54:49.566Z,20.41
2023-05-18T06:55:51.359Z,20.52
2023-05-18T06:56:53.140Z,20.69
2023-05-18T06:57:58.200Z,20.91
2023-05-18T06:59:00.611Z,21.09
2023-05-18T07:00:02.497Z,21.24
2023-05-18T07:01:04.369Z,21.32
2023-05-18T07:02:06.761Z,21.39
2023-05-18T07:03:08.633Z,21.40
2023-05-18T07:04:10.618Z,21.38
2023-05-18T07:05:12.613Z,21.29
2023-05-18T07:06:14.517Z,21.23
2023-05-18T07:07:16.951Z,21.17
2023-05-18T07:08:18.784Z,21.20
2023-05-18T07:09:21.147Z,21.23
2023-05-18T07:10:23.154Z,21.32
2023-05-18T07:11:25.576Z,21.36
2023-05-18T07:12:29.036Z,21.37
2023-05-18T07:13:30.921Z,21.38
2023-05-18T07:14:32.741Z,21.47
2023-05-18T07:15:34.810Z,21.63
2023-05-18T07:16:37.393Z,21.74
2023-05-18T07:17:39.365Z,21.93
2023-05-18T07:18:42.337Z,22.17
2023-05-18T07:19:44.248Z,22.47
2023-05-18T07:20:46.100Z,22.62
2023-05-18T07:21:47.987Z,22.65
2023-05-18T07:22:50.880Z,22.69
2023-05-18T07:23:53.065Z,22.79
2023-05-18T07:24:54.826Z,22.90
2023-05-18T07:25:57.788Z,23.01
2023-05-18T07:27:01.029Z,23.14
2023-05-18T07:28:03.173Z,23.24
2023-05-18T07:29:05.005Z,23.33
2023-05-18T07:30:09.239Z,23.35
2023-05-18T07:31:11.140Z,23.25
2023-05-18T07:32:12.952Z,23.12
2023-05-18T07:33:14.795Z,23.01
2023-05-18T07:34:17.011Z,22.96
2023-05-18T07:35:22.852Z,22.91
2023-05-18T07:36:28.820Z,22.88
2023-05-18T07:37:31.299Z,22.86
2023-05-18T07:38:33.151Z,22.84
2023-05-18T07:39:35.184Z,22.81
2023-05-18T07:40:37.113Z,22.82
2023-05-18T07:41:38.940Z,22.85
2023-05-18T07:42:41.771Z,22.80
2023-05-18T07:43:43.562Z,22.63
2023-05-18T07:44:45.484Z,22.46
2023-05-18T07:45:47.341Z,22.36
2023-05-18T07:46:49.349Z,22.30
2023-05-18T07:47:51.245Z,22.12
2023-05-18T07:48:53.188Z,21.92
2023-05-18T07:49:54.971Z,21.85
2023-05-18T07:50:57.174Z,21.79
2023-05-18T07:52:00.410Z,21.69
2023-05-18T07:53:02.269Z,21.46
2023-05-18T07:54:05.206Z,21.16
2023-05-18T07:55:08.125Z,20.88
2023-05-18T07:56:10.016Z,20.58
2023-05-18T07:57:11.829Z,20.34
2023-05-18T07:58:13.739Z,20.29
2023-05-18T07:59:16.036Z,20.31
2023-05-18T08:00:19.141Z,20.34
2023-05-18T08:01:22.084Z,20.39
2023-05-18T08:02:24.698Z,20.32
2023-05-18T08:03:26.701Z,20.39
2023-05-18T08:04:29.018Z,20.36
2023-05-18T08:05:31.211Z,20.39
2023-05-18T08:06:33.435Z,20.49
2023-05-18T08:07:35.254Z,20.56
2023-05-18T08:08:37.951Z,20.53
2023-05-18T08:09:40.752Z,20.45
2023-05-18T08:10:42.695Z,20.35
2023-05-18T08:11:45.092Z,20.40
2023-05-18T08:12:46.943Z,20.59
2023-05-18T08:13:49.206Z,20.84
2023-05-18T08:14:51.493Z,21.19
2023-05-18T08:16:09.771Z,21.59
2023-05-18T08:17:12.150Z,22.00
2023-05-18T08:18:14.020Z,22.20
2023-05-18T08:19:16.380Z,22.31
2023-05-18T08:20:19.058Z,22.40
2023-05-18T08:21:21.082Z,22.46
2023-05-18T08:22:23.097Z,22.56
2023-05-18T08:23:25.391Z,22.69
2023-05-18T08:24:27.330Z,22.83
2023-05-18T08:25:29.363Z,22.97
2023-05-18T08:26:31.368Z,23.10
2023-05-18T08:27:33.200Z,23.21
2023-05-18T08:28:35.165Z,23.16
2023-05-18T08:29:37.925Z,22.92
2023-05-18T08:30:39.709Z,22.55
2023-05-18T08:31:42.322Z,22.12
2023-05-18T08:32:44.249Z,21.73
2023-05-18T08:33:46.037Z,21.30
2023-05-18T08:34:50.155Z,20.82
2023-05-18T08:35:52.323Z,20.39
2023-05-18T08:36:54.148Z,20.00
2023-05-18T08:37:56.462Z,19.70
2023-05-18T08:38:58.235Z,19.37
2023-05-18T08:40:00.154Z,19.00
2023-05-18T08:41:55.426Z,18.67
2023-05-18T08:43:11.787Z,18.31
2023-05-18T08:44:22.864Z,18.06
2023-05-18T08:46:18.860Z,17.83
2023-05-18T08:47:26.276Z,17.55
2023-05-18T08:48:33.471Z,17.40
2023-05-18T08:49:36.498Z,17.31
2023-05-18T08:50:42.064Z,17.22
2023-05-18T08:51:48.808Z,17.13
2023-05-18T08:52:55.983Z,17.14
2023-05-18T08:53:59.248Z,17.18
2023-05-18T08:55:08.414Z,17.19
2023-05-18T08:56:12.336Z,17.18
2023-05-18T08:57:17.171Z,17.16
2023-05-18T08:58:24.079Z,17.14
2023-05-18T08:59:33.455Z,17.07
2023-05-18T09:00:36.922Z,17.01
2023-05-18T09:01:38.833Z,16.97
2023-05-18T09:02:42.075Z,16.94
2023-05-18T09:03:49.358Z,16.90
2023-05-18T09:04:51.925Z,16.86
2023-05-18T09:05:56.959Z,16.81
2023-05-18T09:07:02.470Z,16.81
2023-05-18T09:08:07.685Z,16.83
2023-05-18T09:09:10.502Z,16.81
2023-05-18T09:10:15.301Z,16.76
2023-05-18T09:11:18.999Z,16.69
2023-05-18T09:12:25.134Z,16.61
2023-05-18T09:13:28.120Z,16.51
2023-05-18T09:14:32.559Z,16.39
2023-05-18T09:15:37.248Z,16.29
2023-05-18T09:16:39.280Z,16.22
2023-05-18T09:17:41.227Z,16.14
2023-05-18T09:18:43.219Z,16.05
2023-05-18T09:19:45.167Z,15.99
2023-05-18T09:20:47.446Z,15.94
2023-05-18T09:21:49.254Z,15.88
2023-05-18T09:22:51.457Z,15.91
2023-05-18T09:23:53.873Z,15.94
2023-05-18T09:24:56.042Z,16.02
2023-05-18T09:26:00.581Z,16.07
2023-05-18T09:27:02.808Z,16.14
2023-05-18T09:28:05.057Z,16.21
2023-05-18T09:29:27.109Z,16.31
2023-05-18T09:30:28.967Z,16.32
2023-05-18T09:31:31.002Z,16.36
2023-05-18T09:32:36.656Z,16.37
2023-05-18T09:33:40.614Z,16.46
2023-05-18T09:34:43.121Z,16.60
2023-05-18T09:35:47.028Z,16.79
2023-05-18T09:36:57.676Z,16.96
2023-05-18T09:38:04.366Z,17.08
2023-05-18T09:39:11.677Z,17.19
2023-05-18T09:40:13.643Z,17.24
2023-05-18T09:41:17.985Z,17.39
2023-05-18T09:42:20.341Z,17.72
2023-05-18T09:43:23.098Z,18.15
2023-05-18T09:44:37.347Z,18.74
2023-05-18T09:45:49.221Z,19.23
2023-05-18T09:46:56.790Z,19.76
2023-05-18T09:47:58.668Z,20.26
2023-05-18T09:49:00.528Z,20.68
2023-05-18T09:50:02.478Z,21.09
2023-05-18T09:51:07.977Z,21.42
2023-05-18T09:52:10.389Z,21.57
2023-05-18T09:53:14.363Z,21.53
2023-05-18T09:54:16.324Z,21.50
2023-05-18T09:55:20.171Z,21.60
2023-05-18T09:56:24.841Z,21.75
2023-05-18T09:57:26.885Z,21.91
2023-05-18T09:58:34.226Z,22.10
2023-05-18T09:59:36.903Z,22.39
2023-05-18T10:00:51.804Z,22.46
2023-05-18T10:02:05.530Z,22.46
2023-05-18T10:03:23.006Z,22.55
2023-05-18T10:04:40.339Z,22.71
2023-05-18T10:05:42.880Z,22.87
2023-05-18T10:06:50.414Z,23.01
2023-05-18T10:07:52.839Z,23.14
2023-05-18T10:09:01.116Z,23.10
2023-05-18T10:10:04.335Z,23.00
2023-05-18T10:11:07.918Z,22.90
2023-05-18T10:12:22.246Z,22.80
2023-05-18T10:13:28.955Z,22.79
2023-05-18T10:15:38.227Z,22.81
2023-05-18T10:16:42.807Z,22.72
2023-05-18T10:17:46.606Z,22.63
2023-05-18T10:18:50.100Z,22.52
2023-05-18T10:19:56.979Z,22.37
2023-05-18T10:21:09.810Z,22.31
2023-05-18T10:22:18.029Z,22.25
2023-05-18T10:23:22.705Z,22.15
2023-05-18T10:24:25.801Z,22.08
2023-05-18T10:25:30.011Z,22.04
2023-05-18T10:26:39.061Z,22.04
2023-05-18T10:27:44.112Z,22.05
2023-05-18T10:28:53.209Z,22.04
2023-05-18T10:29:58.923Z,22.05
2023-05-18T10:31:01.161Z,22.07
2023-05-18T10:32:07.985Z,22.07
2023-05-18T10:33:17.295Z,22.06
2023-05-18T10:34:28.010Z,22.01
2023-05-18T10:35:31.429Z,21.98
2023-05-18T10:36:35.953Z,21.90
2023-05-18T10:37:50.111Z,21.86
2023-05-18T10:38:57.173Z,21.87
2023-05-18T10:40:03.852Z,21.86
2023-05-18T10:41:07.787Z,21.80
2023-05-18T10:42:11.940Z,21.70
2023-05-18T10:43:20.339Z,21.52
2023-05-18T10:44:25.250Z,21.31
2023-05-18T10:45:27.839Z,21.09
2023-05-18T10:46:31.190Z,20.84
2023-05-18T10:47:36.061Z,20.56
2023-05-18T10:48:42.828Z,20.27
2023-05-18T10:49:49.691Z,20.02
2023-05-18T10:50:55.594Z,19.79
2023-05-18T10:51:59.844Z,19.66
2023-05-18T10:53:03.301Z,19.59
2023-05-18T10:54:15.269Z,19.53
2023-05-18T10:55:17.984Z,19.47
2023-05-18T10:56:19.922Z,19.45
2023-05-18T10:57:22.530Z,19.48
2023-05-18T10:58:29.371Z,19.53
2023-05-18T10:59:31.568Z,19.55
2023-05-18T11:00:39.918Z,19.57
2023-05-18T11:01:43.461Z,19.59
2023-05-18T11:02:45.927Z,19.61
2023-05-18T11:03:49.563Z,19.63
2023-05-18T11:04:54.657Z,19.68
2023-05-18T11:06:11.157Z,19.69
2023-05-18T11:07:14.234Z,19.67
2023-05-18T11:08:29.414Z,19.55
2023-05-18T11:09:32.506Z,19.39
2023-05-18T11:10:48.357Z,19.17
2023-05-18T11:12:00.955Z,18.94
2023-05-18T11:13:03.631Z,18.75
2023-05-18T11:14:05.750Z,18.61
2023-05-18T11:15:08.865Z,18.49
2023-05-18T11:16:10.926Z,18.44
2023-05-18T11:17:21.276Z,18.43
2023-05-18T11:18:35.249Z,18.41
2023-05-18T11:19:37.114Z,18.39
2023-05-18T11:20:38.901Z,18.38
2023-05-18T11:21:41.786Z,18.38
2023-05-18T11:23:02.763Z,18.40
2023-05-18T11:24:30.909Z,18.48
2023-05-18T11:25:32.626Z,18.57
2023-05-18T11:26:41.159Z,18.61
2023-05-18T11:27:43.192Z,18.70
2023-05-18T11:28:45.042Z,18.69
2023-05-18T11:29:55.300Z,18.68
2023-05-18T11:31:03.892Z,18.67
2023-05-18T11:32:32.443Z,18.72
2023-05-18T11:33:36.521Z,18.80
2023-05-18T11:34:54.530Z,18.85
2023-05-18T11:36:07.229Z,18.86
2023-05-18T11:37:10.601Z,18.81
2023-05-18T11:38:13.053Z,18.74
2023-05-18T11:39:24.723Z,18.73
2023-05-18T11:40:48.908Z,18.70
2023-05-18T11:42:08.296Z,18.70
2023-05-18T11:43:25.259Z,18.64
2023-05-18T11:44:29.727Z,18.57
2023-05-18T11:45:34.151Z,18.52
2023-05-18T11:47:09.920Z,18.45
2023-05-18T11:48:12.163Z,18.43
2023-05-18T11:49:18.164Z,18.46
2023-05-18T11:50:20.310Z,18.45
2023-05-18T11:51:25.000Z,18.52
2023-05-18T11:52:27.381Z,18.57
2023-05-18T11:53:31.138Z,18.61
2023-05-18T11:55:00.407Z,18.63
2023-05-18T11:56:02.308Z,18.68
2023-05-18T11:57:04.898Z,18.72
2023-05-18T11:58:09.968Z,18.77
2023-05-18T11:59:14.087Z,18.85
2023-05-18T12:00:17.115Z,18.90
2023-05-18T12:01:19.278Z,18.90
2023-05-18T12:02:26.635Z,18.86
2023-05-18T12:03:31.924Z,18.79
2023-05-18T12:04:36.963Z,18.63
2023-05-18T12:05:41.980Z,18.48
2023-05-18T12:06:43.877Z,18.38
2023-05-18T12:07:56.477Z,18.32
2023-05-18T12:09:00.883Z,18.29
2023-05-18T12:10:14.664Z,18.25
2023-05-18T12:11:17.040Z,18.25
2023-05-18T12:12:23.355Z,18.27
2023-05-18T12:13:26.245Z,18.25
2023-05-18T12:14:29.378Z,18.27
2023-05-18T12:15:32.169Z,18.25
2023-05-18T12:16:37.498Z,18.28
2023-05-18T12:17:46.634Z,18.32
2023-05-18T12:18:52.219Z,18.35
2023-05-18T12:19:54.142Z,18.36
2023-05-18T12:20:55.949Z,18.38
2023-05-18T12:21:59.055Z,18.39
2023-05-18T12:23:01.146Z,18.41
2023-05-18T12:24:04.181Z,18.43
2023-05-18T12:25:07.974Z,18.46
2023-05-18T12:26:09.909Z,18.49
2023-05-18T12:27:13.193Z,18.53
2023-05-18T12:28:17.092Z,18.58
2023-05-18T12:29:21.813Z,18.60
